createdAt,value
2019-04-14T00:02:55.486Z,16.60
2019-04-14T00:05:23.254Z,16.43
2019-04-14T00:07:50.584Z,18.13
2019-04-14T00:10:18.711Z,19.10
2019-04-14T00:12:49.810Z,19.10
2019-04-14T00:15:27.542Z,17.63
2019-04-14T00:17:47.872Z,21.87
2019-04-14T00:20:14.804Z,18.23
2019-04-14T00:22:42.478Z,17.83
2019-04-14T00:25:09.453Z,18.30
2019-04-14T00:27:39.249Z,17.43
2019-04-14T00:30:05.935Z,18.23
2019-04-14T00:32:35.454Z,17.90
2019-04-14T00:35:12.374Z,19.90
2019-04-14T00:38:06.272Z,19.17
2019-04-14T00:40:43.262Z,20.03
2019-04-14T00:43:35.239Z,16.83
2019-04-14T00:46:07.953Z,18.70
2019-04-14T00:48:35.097Z,17.47
2019-04-14T00:51:02.781Z,19.40
2019-04-14T00:53:29.664Z,21.10
2019-04-14T00:55:57.532Z,19.93
2019-04-14T00:58:26.285Z,22.33
2019-04-14T01:00:53.842Z,21.00
2019-04-14T01:03:21.949Z,20.00
2019-04-14T01:05:50.274Z,15.20
2019-04-14T01:08:18.528Z,16.13
2019-04-14T01:10:45.571Z,17.53
2019-04-14T01:13:14.136Z,15.37
2019-04-14T01:15:51.459Z,17.20
2019-04-14T01:18:10.038Z,16.10
2019-04-14T01:20:37.053Z,17.70
2019-04-14T01:23:04.174Z,15.33
2019-04-14T01:25:32.363Z,16.77
2019-04-14T01:28:02.563Z,16.50
2019-04-14T01:30:30.537Z,15.90
2019-04-14T01:32:57.419Z,17.97
2019-04-14T01:35:24.904Z,17.20
2019-04-14T01:37:52.883Z,17.13
2019-04-14T01:40:20.697Z,17.93
2019-04-14T01:42:48.500Z,18.47
2019-04-14T01:45:18.517Z,16.80
2019-04-14T01:47:46.648Z,18.87
2019-04-14T01:50:14.849Z,16.83
2019-04-14T01:52:52.298Z,18.50
2019-04-14T01:55:31.278Z,16.20
2019-04-14T01:58:18.865Z,16.63
2019-04-14T02:01:08.422Z,16.27
2019-04-14T02:03:36.559Z,17.83
2019-04-14T02:06:04.546Z,17.10
2019-04-14T02:08:31.512Z,14.73
2019-04-14T02:10:58.781Z,17.30
2019-04-14T02:13:26.818Z,18.10
2019-04-14T02:15:54.982Z,15.63
2019-04-14T02:18:22.908Z,15.63
2019-04-14T02:20:51.062Z,15.97
2019-04-14T02:23:21.494Z,17.33
2019-04-14T02:25:49.371Z,16.17
2019-04-14T02:28:17.770Z,14.33
2019-04-14T02:30:53.863Z,16.80
2019-04-14T02:33:44.642Z,16.00
2019-04-14T02:36:19.883Z,13.50
2019-04-14T02:41:14.215Z,14.27
2019-04-14T02:43:57.673Z,13.27
2019-04-14T02:46:02.448Z,13.73
2019-04-14T02:56:16.574Z,14.33
2019-04-14T02:58:48.403Z,14.00
2019-04-14T03:01:09.967Z,13.50
2019-04-14T03:03:31.754Z,16.60
2019-04-14T03:06:10.321Z,14.80
2019-04-14T03:08:31.328Z,18.17
2019-04-14T03:11:04.080Z,18.17
2019-04-14T03:13:30.820Z,15.97
2019-04-14T03:15:59.027Z,16.43
2019-04-14T03:18:44.866Z,17.87
2019-04-14T03:21:52.748Z,15.23
2019-04-14T03:24:31.913Z,17.37
2019-04-14T03:29:43.379Z,19.73
2019-04-14T03:34:42.994Z,14.80
2019-04-14T03:37:30.683Z,17.33
2019-04-14T03:42:08.701Z,17.53
2019-04-14T03:44:44.993Z,17.90
2019-04-14T03:47:05.265Z,17.90
2019-04-14T03:49:40.547Z,17.90
2019-04-14T03:51:57.665Z,14.80
2019-04-14T03:54:29.099Z,17.07
2019-04-14T03:56:47.087Z,19.83
2019-04-14T03:59:15.189Z,16.77
2019-04-14T04:01:41.952Z,17.97
2019-04-14T04:04:09.655Z,19.10
2019-04-14T04:06:37.806Z,20.10
2019-04-14T04:09:06.269Z,21.50
2019-04-14T04:11:34.375Z,23.10
2019-04-14T04:14:01.344Z,22.57
2019-04-14T04:16:41.918Z,23.67
2019-04-14T04:19:19.622Z,24.73
2019-04-14T04:22:15.080Z,30.33
2019-04-14T04:24:50.030Z,26.73
2019-04-14T04:27:30.896Z,59.20
2019-04-14T04:30:20.829Z,30.63
2019-04-14T04:33:15.463Z,29.40
2019-04-14T04:35:47.907Z,35.97
2019-04-14T04:38:31.295Z,37.90
2019-04-14T04:40:59.303Z,38.80
2019-04-14T04:43:27.573Z,38.07
2019-04-14T04:45:54.447Z,39.23
2019-04-14T04:48:21.782Z,38.93
2019-04-14T04:50:49.792Z,40.40
2019-04-14T04:53:17.984Z,39.43
2019-04-14T04:55:46.084Z,40.30
2019-04-14T04:58:13.393Z,39.70
2019-04-14T05:00:40.143Z,37.40
2019-04-14T05:03:07.927Z,37.10
2019-04-14T05:06:22.306Z,39.10
2019-04-14T05:08:52.366Z,37.30
2019-04-14T05:11:29.671Z,35.97
2019-04-14T05:13:57.782Z,36.30
2019-04-14T05:16:25.949Z,40.47
2019-04-14T05:18:53.129Z,40.80
2019-04-14T05:21:19.935Z,41.43
2019-04-14T05:23:47.425Z,41.03
2019-04-14T05:26:15.487Z,39.90
2019-04-14T05:28:42.495Z,37.50
2019-04-14T05:31:10.701Z,37.70
2019-04-14T05:33:38.302Z,39.70
2019-04-14T05:36:06.252Z,37.53
2019-04-14T05:38:34.405Z,38.17
2019-04-14T05:41:02.727Z,35.50
2019-04-14T05:43:38.403Z,40.30
2019-04-14T05:45:59.091Z,37.63
2019-04-14T05:48:38.070Z,37.90
2019-04-14T05:51:06.281Z,43.20
2019-04-14T05:53:33.259Z,38.27
2019-04-14T05:55:59.995Z,36.77
2019-04-14T05:58:27.510Z,40.90
2019-04-14T06:00:54.362Z,39.50
2019-04-14T06:03:21.366Z,41.07
2019-04-14T06:05:51.142Z,39.90
2019-04-14T06:08:18.061Z,40.57
2019-04-14T06:10:44.765Z,36.70
2019-04-14T06:13:18.104Z,41.83
2019-04-14T06:15:44.939Z,40.40
2019-04-14T06:18:11.903Z,41.27
2019-04-14T06:20:38.757Z,39.40
2019-04-14T06:23:05.882Z,40.70
2019-04-14T06:25:32.594Z,42.10
2019-04-14T06:27:59.296Z,42.87
2019-04-14T06:31:00.799Z,40.37
2019-04-14T06:33:56.282Z,41.70
2019-04-14T06:36:53.087Z,41.03
2019-04-14T06:39:25.564Z,47.90
2019-04-14T06:41:52.365Z,42.47
2019-04-14T06:44:19.038Z,40.60
2019-04-14T06:46:46.217Z,42.30
2019-04-14T06:49:12.964Z,43.00
2019-04-14T06:51:39.721Z,41.57
2019-04-14T06:54:06.852Z,40.73
2019-04-14T06:56:33.589Z,38.10
2019-04-14T06:59:00.515Z,40.50
2019-04-14T07:01:27.334Z,40.83
2019-04-14T07:04:00.141Z,43.43
2019-04-14T07:06:31.166Z,39.30
2019-04-14T07:08:57.912Z,46.63
2019-04-14T07:11:31.718Z,40.37
2019-04-14T07:14:00.421Z,42.43
2019-04-14T07:16:29.289Z,41.07
2019-04-14T07:18:56.030Z,35.67
2019-04-14T07:21:24.237Z,41.70
2019-04-14T07:23:51.528Z,38.30
2019-04-14T07:26:20.281Z,38.73
2019-04-14T07:28:56.683Z,42.10
2019-04-14T07:31:30.303Z,39.03
2019-04-14T07:34:17.435Z,40.93
2019-04-14T07:37:03.811Z,39.70
2019-04-14T07:40:02.781Z,38.40
2019-04-14T07:42:39.016Z,34.50
2019-04-14T07:45:24.858Z,36.77
2019-04-14T07:48:13.775Z,35.60
2019-04-14T07:51:01.581Z,37.13
2019-04-14T07:53:48.311Z,36.37
2019-04-14T07:56:40.294Z,39.30
2019-04-14T07:59:38.374Z,39.80
2019-04-14T08:02:25.922Z,38.03
2019-04-14T08:05:12.374Z,39.13
2019-04-14T08:07:39.261Z,37.50
2019-04-14T08:10:06.631Z,38.97
2019-04-14T08:12:35.448Z,34.13
2019-04-14T08:15:04.630Z,39.07
2019-04-14T08:17:31.463Z,36.53
2019-04-14T08:19:58.265Z,37.10
2019-04-14T08:22:25.027Z,37.67
2019-04-14T08:24:51.942Z,34.90
2019-04-14T08:27:18.761Z,35.13
2019-04-14T08:29:46.955Z,36.97
2019-04-14T08:32:15.265Z,35.47
2019-04-14T08:34:42.179Z,38.37
2019-04-14T08:37:09.829Z,38.47
2019-04-14T08:39:36.686Z,36.37
2019-04-14T08:42:24.517Z,34.53
2019-04-14T08:44:52.225Z,35.73
2019-04-14T08:47:39.483Z,33.30
2019-04-14T08:50:19.329Z,33.10
2019-04-14T08:52:51.621Z,35.43
2019-04-14T08:55:40.797Z,31.90
2019-04-14T08:58:18.956Z,34.73
2019-04-14T09:01:11.351Z,32.40
2019-04-14T09:04:02.266Z,37.23
2019-04-14T09:06:47.546Z,36.13
2019-04-14T09:09:26.027Z,36.73
2019-04-14T09:11:56.505Z,33.50
2019-04-14T09:14:23.518Z,32.57
2019-04-14T09:16:50.304Z,33.30
2019-04-14T09:19:17.213Z,32.50
2019-04-14T09:21:45.853Z,33.10
2019-04-14T09:24:13.609Z,34.30
2019-04-14T09:26:40.511Z,33.27
2019-04-14T09:29:07.359Z,33.00
2019-04-14T09:31:37.079Z,37.37
2019-04-14T09:34:03.892Z,32.40
2019-04-14T09:36:31.730Z,38.57
2019-04-14T09:38:58.487Z,32.73
2019-04-14T09:41:28.211Z,32.60
2019-04-14T09:43:55.087Z,36.23
2019-04-14T09:46:21.872Z,33.93
2019-04-14T09:48:48.639Z,33.03
2019-04-14T09:51:15.461Z,34.00
2019-04-14T09:53:42.529Z,32.27
2019-04-14T09:56:09.223Z,32.50
2019-04-14T09:58:35.989Z,40.07
2019-04-14T10:01:02.865Z,34.63
2019-04-14T10:03:29.752Z,36.03
2019-04-14T10:05:56.517Z,34.50
2019-04-14T10:08:23.273Z,34.83
2019-04-14T10:10:50.010Z,31.20
2019-04-14T10:13:16.760Z,32.87
2019-04-14T10:15:43.662Z,32.20
2019-04-14T10:18:10.547Z,30.27
2019-04-14T10:20:37.280Z,31.30
2019-04-14T10:23:04.657Z,35.60
2019-04-14T10:25:31.431Z,33.87
2019-04-14T10:27:58.198Z,34.67
2019-04-14T10:30:24.943Z,33.93
2019-04-14T10:32:51.784Z,29.27
2019-04-14T10:35:18.519Z,29.40
2019-04-14T10:37:45.261Z,28.27
2019-04-14T10:40:12.023Z,29.73
2019-04-14T10:42:41.574Z,31.97
2019-04-14T10:45:11.622Z,26.97
2019-04-14T10:47:38.419Z,32.07
2019-04-14T10:50:06.487Z,28.30
2019-04-14T10:52:33.278Z,28.07
2019-04-14T10:55:00.017Z,30.63
2019-04-14T10:57:26.883Z,28.53
2019-04-14T10:59:53.691Z,29.23
2019-04-14T11:02:21.568Z,38.20
2019-04-14T11:04:48.572Z,28.20
2019-04-14T11:07:21.851Z,32.20
2019-04-14T11:09:48.703Z,30.50
2019-04-14T11:12:18.773Z,29.80
2019-04-14T11:14:48.388Z,27.30
2019-04-14T11:17:15.119Z,28.70
2019-04-14T11:19:45.251Z,31.77
2019-04-14T11:22:11.989Z,26.93
2019-04-14T11:24:38.724Z,27.50
2019-04-14T11:27:05.461Z,26.83
2019-04-14T11:29:33.458Z,27.07
2019-04-14T11:32:37.892Z,24.63
2019-04-14T11:35:27.069Z,24.43
2019-04-14T11:38:11.994Z,23.13
2019-04-14T11:40:42.064Z,31.43
2019-04-14T11:43:08.854Z,23.70
2019-04-14T11:45:35.596Z,22.80
2019-04-14T11:48:02.433Z,25.70
2019-04-14T11:50:29.326Z,24.30
2019-04-14T11:52:56.122Z,24.00
2019-04-14T11:55:26.553Z,21.30
2019-04-14T11:57:53.286Z,27.47
2019-04-14T12:00:45.739Z,23.27
2019-04-14T12:03:22.152Z,24.00
2019-04-14T12:06:02.182Z,25.67
2019-04-14T12:08:39.930Z,22.73
2019-04-14T12:11:06.705Z,25.20
2019-04-14T12:13:33.513Z,22.67
2019-04-14T12:16:02.504Z,29.20
2019-04-14T12:18:29.253Z,21.43
2019-04-14T12:20:55.986Z,24.83
2019-04-14T12:23:22.741Z,22.80
2019-04-14T12:25:49.443Z,23.40
2019-04-14T12:28:17.245Z,21.30
2019-04-14T12:30:44.444Z,22.13
2019-04-14T12:33:15.226Z,21.57
2019-04-14T12:35:44.226Z,20.47
2019-04-14T12:38:11.656Z,22.73
2019-04-14T12:40:40.353Z,24.87
2019-04-14T12:43:32.567Z,22.70
2019-04-14T12:46:28.384Z,22.20
2019-04-14T12:49:03.024Z,23.00
2019-04-14T12:51:38.448Z,24.40
2019-04-14T12:54:05.208Z,22.87
2019-04-14T12:56:31.926Z,20.87
2019-04-14T12:59:18.311Z,19.67
2019-04-14T13:01:52.084Z,21.90
2019-04-14T13:04:18.791Z,18.73
2019-04-14T13:06:45.556Z,19.00
2019-04-14T13:09:14.576Z,18.97
2019-04-14T13:11:41.191Z,20.23
2019-04-14T13:14:07.904Z,20.77
2019-04-14T13:16:34.615Z,20.23
2019-04-14T13:19:01.327Z,19.77
2019-04-14T13:21:31.149Z,20.10
2019-04-14T13:23:57.880Z,18.30
2019-04-14T13:26:24.590Z,19.50
2019-04-14T13:28:51.701Z,17.37
2019-04-14T13:31:18.405Z,21.83
2019-04-14T13:33:45.105Z,19.57
2019-04-14T13:36:11.846Z,18.37
2019-04-14T13:38:38.604Z,19.90
2019-04-14T13:41:05.346Z,17.30
2019-04-14T13:43:32.071Z,20.07
2019-04-14T13:46:00.856Z,19.20
2019-04-14T13:48:27.550Z,18.13
2019-04-14T13:50:55.015Z,21.57
2019-04-14T13:53:21.741Z,19.87
2019-04-14T13:55:48.497Z,18.20
2019-04-14T13:58:15.240Z,19.40
2019-04-14T14:00:42.003Z,26.13
2019-04-14T14:03:08.693Z,18.37
2019-04-14T14:05:35.407Z,19.77
2019-04-14T14:08:02.169Z,18.40
2019-04-14T14:10:30.304Z,18.67
2019-04-14T14:13:07.545Z,19.30
2019-04-14T14:16:05.784Z,22.77
2019-04-14T14:18:52.255Z,19.10
2019-04-14T14:21:39.104Z,21.50
2019-04-14T14:24:26.790Z,21.67
2019-04-14T14:26:53.555Z,20.30
2019-04-14T14:29:20.396Z,19.30
2019-04-14T14:31:47.209Z,18.60
2019-04-14T14:34:14.239Z,18.47
2019-04-14T14:36:40.953Z,19.30
2019-04-14T14:39:09.275Z,17.33
2019-04-14T14:41:36.070Z,18.93
2019-04-14T14:44:02.834Z,20.43
2019-04-14T14:46:38.598Z,18.43
2019-04-14T14:49:12.751Z,20.93
2019-04-14T14:51:51.058Z,23.97
2019-04-14T14:54:17.803Z,26.00
2019-04-14T14:56:44.547Z,18.70
2019-04-14T14:59:11.229Z,21.63
2019-04-14T15:01:39.621Z,18.00
2019-04-14T15:04:06.356Z,17.40
2019-04-14T15:06:33.197Z,18.50
2019-04-14T15:08:59.971Z,23.20
2019-04-14T15:11:26.671Z,17.83
2019-04-14T15:13:53.533Z,16.20
2019-04-14T15:16:20.430Z,17.03
2019-04-14T15:18:47.139Z,18.60
2019-04-14T15:21:14.138Z,17.60
2019-04-14T15:23:41.172Z,17.33
2019-04-14T15:26:08.245Z,19.10
2019-04-14T15:28:35.051Z,14.53
2019-04-14T15:31:02.131Z,15.90
2019-04-14T15:33:28.988Z,19.57
2019-04-14T15:35:55.702Z,15.10
2019-04-14T15:38:24.459Z,16.87
2019-04-14T15:40:51.403Z,18.87
2019-04-14T15:43:18.142Z,20.07
2019-04-14T15:45:45.183Z,17.27
2019-04-14T15:48:11.916Z,15.70
2019-04-14T15:50:38.762Z,21.40
2019-04-14T15:53:05.492Z,15.17
2019-04-14T15:55:32.177Z,14.27
2019-04-14T15:58:07.057Z,15.83
2019-04-14T16:00:53.411Z,15.10
2019-04-14T16:03:38.348Z,20.90
2019-04-14T16:06:26.982Z,17.70
2019-04-14T16:09:13.463Z,21.77
2019-04-14T16:11:56.604Z,16.17
2019-04-14T16:14:44.432Z,16.93
2019-04-14T16:17:30.234Z,18.73
2019-04-14T16:20:03.521Z,15.53
2019-04-14T16:22:30.358Z,15.57
2019-04-14T16:24:57.130Z,17.30
2019-04-14T16:27:30.701Z,17.90
2019-04-14T16:30:06.161Z,18.13
2019-04-14T16:32:52.372Z,18.83
2019-04-14T16:35:22.260Z,17.30
2019-04-14T16:37:49.001Z,14.30
2019-04-14T16:40:18.211Z,20.10
2019-04-14T16:42:45.013Z,16.07
2019-04-14T16:45:11.713Z,17.87
2019-04-14T16:47:41.169Z,18.60
2019-04-14T16:50:07.891Z,16.73
2019-04-14T16:52:48.282Z,16.80
2019-04-14T16:55:20.650Z,16.00
2019-04-14T16:58:05.870Z,16.83
2019-04-14T17:00:37.275Z,16.27
2019-04-14T17:03:04.069Z,19.53
2019-04-14T17:05:30.806Z,14.80
2019-04-14T17:07:57.531Z,13.60
2019-04-14T17:10:24.251Z,16.13
2019-04-14T17:12:50.977Z,16.20
2019-04-14T17:15:43.395Z,13.77
2019-04-14T17:18:16.487Z,14.60
2019-04-14T17:20:55.573Z,15.13
2019-04-14T17:23:33.451Z,13.70
2019-04-14T17:26:09.391Z,16.00
2019-04-14T17:28:56.014Z,14.33
2019-04-14T17:31:42.166Z,12.20
2019-04-14T17:34:17.965Z,14.50
2019-04-14T17:36:54.817Z,14.33
2019-04-14T17:39:35.684Z,12.60
2019-04-14T17:42:16.684Z,15.40
2019-04-14T17:45:12.048Z,13.60
2019-04-14T17:47:48.999Z,13.33
2019-04-14T17:50:26.039Z,13.10
2019-04-14T17:53:15.585Z,13.57
2019-04-14T17:56:07.850Z,13.30
2019-04-14T17:58:46.938Z,10.40
2019-04-14T18:01:39.625Z,10.73
2019-04-14T18:04:10.539Z,13.90
2019-04-14T18:06:52.996Z,13.57
2019-04-14T18:09:34.281Z,11.33
2019-04-14T18:12:12.915Z,11.47
2019-04-14T18:14:51.282Z,17.90
2019-04-14T18:17:25.824Z,11.53
2019-04-14T18:20:00.857Z,10.57
2019-04-14T18:22:30.397Z,13.17
2019-04-14T18:24:57.400Z,11.97
2019-04-14T18:27:24.501Z,10.20
2019-04-14T18:29:59.271Z,11.80
2019-04-14T18:32:33.013Z,10.97
2019-04-14T18:35:25.418Z,10.67
2019-04-14T18:38:12.179Z,13.03
2019-04-14T18:41:05.917Z,12.20
2019-04-14T18:43:52.729Z,11.50
2019-04-14T18:46:57.372Z,12.57
2019-04-14T18:49:43.872Z,11.97
2019-04-14T18:52:21.437Z,19.87
2019-04-14T18:54:56.706Z,11.13
2019-04-14T18:57:28.365Z,12.70
2019-04-14T19:00:33.357Z,10.60
2019-04-14T19:03:00.424Z,10.70
2019-04-14T19:05:29.047Z,12.50
2019-04-14T19:07:57.681Z,9.93
2019-04-14T19:10:24.390Z,13.20
2019-04-14T19:12:58.923Z,11.40
2019-04-14T19:15:39.423Z,10.10
2019-04-14T19:18:26.583Z,10.53
2019-04-14T19:20:59.541Z,10.03
2019-04-14T19:23:26.320Z,10.10
2019-04-14T19:25:53.043Z,9.07
2019-04-14T19:28:19.751Z,11.20
2019-04-14T19:30:46.444Z,10.47
2019-04-14T19:33:13.328Z,11.80
2019-04-14T19:35:43.186Z,10.83
2019-04-14T19:38:12.084Z,11.03
2019-04-14T19:40:40.727Z,11.37
2019-04-14T19:43:07.441Z,11.07
2019-04-14T19:45:34.148Z,11.00
2019-04-14T19:48:00.878Z,12.10
2019-04-14T19:50:27.577Z,11.30
2019-04-14T19:52:57.207Z,11.50
2019-04-14T19:55:23.892Z,11.87
2019-04-14T19:57:50.597Z,10.90
2019-04-14T20:00:20.732Z,11.17
2019-04-14T20:02:47.519Z,12.00
2019-04-14T20:05:17.277Z,11.77
2019-04-14T20:07:43.978Z,14.27
2019-04-14T20:10:12.241Z,14.30
2019-04-14T20:12:38.982Z,12.13
2019-04-14T20:15:05.914Z,12.80
2019-04-14T20:17:49.399Z,10.80
2019-04-14T20:20:34.598Z,11.43
2019-04-14T20:23:10.351Z,8.67
2019-04-14T20:25:46.567Z,8.60
2019-04-14T20:28:19.452Z,13.53
2019-04-14T20:30:49.859Z,10.27
2019-04-14T20:33:16.590Z,8.33
2019-04-14T20:35:43.421Z,9.17
2019-04-14T20:38:10.183Z,9.60
2019-04-14T20:40:36.958Z,9.83
2019-04-14T20:43:03.762Z,11.90
2019-04-14T20:45:32.361Z,10.13
2019-04-14T20:47:59.108Z,11.20
2019-04-14T20:50:25.805Z,11.00
2019-04-14T20:52:52.499Z,10.73
2019-04-14T20:55:19.196Z,9.20
2019-04-14T20:57:45.900Z,10.13
2019-04-14T21:00:12.709Z,11.43
2019-04-14T21:02:51.313Z,9.73
2019-04-14T21:05:31.462Z,8.60
2019-04-14T21:08:16.111Z,10.30
2019-04-14T21:10:53.510Z,11.53
2019-04-14T21:13:35.644Z,11.47
2019-04-14T21:16:20.320Z,10.20
2019-04-14T21:18:49.378Z,10.17
2019-04-14T21:21:30.337Z,10.40
2019-04-14T21:24:05.400Z,8.60
2019-04-14T21:26:40.840Z,10.70
2019-04-14T21:29:11.396Z,16.40
2019-04-14T21:31:49.758Z,10.83
2019-04-14T21:34:38.610Z,9.00
2019-04-14T21:37:40.278Z,8.90
2019-04-14T21:40:14.585Z,9.20
2019-04-14T21:42:41.766Z,9.63
2019-04-14T21:45:08.622Z,9.87
2019-04-14T21:47:38.597Z,13.97
2019-04-14T21:50:12.312Z,9.90
2019-04-14T21:52:49.903Z,8.20
2019-04-14T21:55:16.878Z,9.03
2019-04-14T21:58:04.495Z,10.53
2019-04-14T22:01:27.896Z,9.20
2019-04-14T22:04:08.030Z,9.83
2019-04-14T22:06:37.216Z,8.43
2019-04-14T22:09:07.190Z,9.40
2019-04-14T22:11:33.960Z,10.70
2019-04-14T22:14:02.020Z,11.00
2019-04-14T22:16:29.148Z,8.43
2019-04-14T22:18:58.111Z,8.13
2019-04-14T22:21:24.918Z,9.10
2019-04-14T22:24:01.258Z,8.80
2019-04-14T22:26:26.390Z,9.33
2019-04-14T22:28:52.224Z,10.73
2019-04-14T22:31:18.936Z,8.07
2019-04-14T22:33:45.784Z,8.80
2019-04-14T22:36:12.696Z,8.33
2019-04-14T22:38:39.762Z,7.93
2019-04-14T22:41:06.455Z,8.60
2019-04-14T22:43:33.182Z,9.50
2019-04-14T22:45:59.992Z,9.90
2019-04-14T22:48:26.772Z,13.60
2019-04-14T22:50:53.462Z,8.40
2019-04-14T22:53:20.170Z,7.47
2019-04-14T22:55:46.950Z,8.10
2019-04-14T22:58:13.749Z,7.77
2019-04-14T23:01:02.691Z,7.83
2019-04-14T23:03:54.889Z,7.80
2019-04-14T23:06:43.952Z,8.20
2019-04-14T23:09:28.116Z,7.57
2019-04-14T23:12:06.039Z,9.03
2019-04-14T23:14:39.912Z,7.23
2019-04-14T23:17:25.108Z,7.60
2019-04-14T23:20:14.631Z,8.00
2019-04-14T23:22:59.568Z,7.27
2019-04-14T23:25:26.367Z,7.57
2019-04-14T23:27:53.218Z,7.90
2019-04-14T23:30:19.972Z,7.30
2019-04-14T23:32:46.707Z,7.60
2019-04-14T23:35:13.409Z,6.30
2019-04-14T23:37:40.159Z,6.73
2019-04-14T23:40:07.620Z,6.87
2019-04-14T23:42:37.202Z,7.00
2019-04-14T23:45:06.733Z,6.90
2019-04-14T23:47:33.462Z,7.10
2019-04-14T23:50:00.466Z,6.50
2019-04-14T23:52:27.189Z,6.97
2019-04-14T23:54:53.930Z,6.20
2019-04-14T23:57:20.962Z,6.47
2019-04-14T23:59:47.708Z,6.10
